sensor_id;sensor_type;location;lat;lon;timestamp;noise_LAeq;noise_LA_min;noise_LA_max;noise_LA01;noise_LA95
81666;Laerm;71083;51.796;10.952;2023-08-31T00:00:40;29.02;28.31;30.46;;
81666;Laerm;71083;51.796;10.952;2023-08-31T00:03:05;56.14;28.26;70.76;;
81666;Laerm;71083;51.796;10.952;2023-08-31T00:05:31;30.72;28.69;34.72;;
81666;Laerm;71083;51.796;10.952;2023-08-31T00:07:56;30.75;28.72;39.63;;
81666;Laerm;71083;51.796;10.952;2023-08-31T00:10:22;29.36;28.35;32.64;;
81666;Laerm;71083;51.796;10.952;2023-08-31T00:12:48;55.37;28.88;73.06;;
81666;Laerm;71083;51.796;10.952;2023-08-31T00:15:14;31.42;29.08;40.17;;
81666;Laerm;71083;51.796;10.952;2023-08-31T00:17:39;35.60;29.70;46.41;;
81666;Laerm;71083;51.796;10.952;2023-08-31T00:20:06;34.79;30.41;41.85;;
81666;Laerm;71083;51.796;10.952;2023-08-31T00:22:32;33.34;30.36;43.72;;
81666;Laerm;71083;51.796;10.952;2023-08-31T00:24:57;35.18;31.04;43.19;;
81666;Laerm;71083;51.796;10.952;2023-08-31T00:27:23;56.91;30.67;74.82;;
81666;Laerm;71083;51.796;10.952;2023-08-31T00:29:48;50.51;30.52;67.74;;
81666;Laerm;71083;51.796;10.952;2023-08-31T00:32:16;36.13;31.08;41.32;;
81666;Laerm;71083;51.796;10.952;2023-08-31T00:34:42;55.16;32.71;71.85;;
81666;Laerm;71083;51.796;10.952;2023-08-31T00:37:07;35.04;31.14;39.32;;
81666;Laerm;71083;51.796;10.952;2023-08-31T00:39:33;52.56;32.79;68.57;;
81666;Laerm;71083;51.796;10.952;2023-08-31T00:41:59;37.22;31.76;51.66;;
81666;Laerm;71083;51.796;10.952;2023-08-31T00:44:24;56.80;31.70;75.89;;
81666;Laerm;71083;51.796;10.952;2023-08-31T00:46:50;53.83;32.53;69.96;;
81666;Laerm;71083;51.796;10.952;2023-08-31T00:49:15;59.86;30.90;75.63;;
81666;Laerm;71083;51.796;10.952;2023-08-31T00:51:40;55.97;30.63;70.48;;
81666;Laerm;71083;51.796;10.952;2023-08-31T00:54:06;32.50;29.62;42.20;;
81666;Laerm;71083;51.796;10.952;2023-08-31T00:56:31;32.81;30.00;37.48;;
81666;Laerm;71083;51.796;10.952;2023-08-31T00:58:57;33.47;30.33;38.61;;
81666;Laerm;71083;51.796;10.952;2023-08-31T01:03:50;60.53;31.02;78.68;;
81666;Laerm;71083;51.796;10.952;2023-08-31T01:06:22;38.68;30.73;59.23;;
81666;Laerm;71083;51.796;10.952;2023-08-31T01:11:30;58.04;30.77;74.22;;
81666;Laerm;71083;51.796;10.952;2023-08-31T01:14:01;33.74;30.15;38.97;;
81666;Laerm;71083;51.796;10.952;2023-08-31T01:16:29;52.87;30.10;68.83;;
81666;Laerm;71083;51.796;10.952;2023-08-31T01:18:55;33.71;29.69;41.00;;
81666;Laerm;71083;51.796;10.952;2023-08-31T01:21:25;61.06;30.55;77.57;;
81666;Laerm;71083;51.796;10.952;2023-08-31T01:23:53;53.12;29.05;70.24;;
81666;Laerm;71083;51.796;10.952;2023-08-31T01:26:19;35.35;28.87;44.99;;
81666;Laerm;71083;51.796;10.952;2023-08-31T01:28:44;32.95;29.20;40.87;;
81666;Laerm;71083;51.796;10.952;2023-08-31T01:31:10;58.46;29.65;73.82;;
81666;Laerm;71083;51.796;10.952;2023-08-31T01:33:35;57.67;29.81;74.18;;
81666;Laerm;71083;51.796;10.952;2023-08-31T01:36:01;55.47;29.43;72.72;;
81666;Laerm;71083;51.796;10.952;2023-08-31T01:38:29;52.71;29.10;68.37;;
81666;Laerm;71083;51.796;10.952;2023-08-31T01:40:58;53.10;28.73;70.12;;
81666;Laerm;71083;51.796;10.952;2023-08-31T01:43:25;53.41;28.81;71.27;;
81666;Laerm;71083;51.796;10.952;2023-08-31T01:45:52;35.30;28.56;48.99;;
81666;Laerm;71083;51.796;10.952;2023-08-31T01:48:18;59.23;28.71;77.41;;
81666;Laerm;71083;51.796;10.952;2023-08-31T01:50:44;62.86;29.18;80.50;;
81666;Laerm;71083;51.796;10.952;2023-08-31T01:53:09;56.10;28.93;71.67;;
81666;Laerm;71083;51.796;10.952;2023-08-31T01:55:34;63.27;28.69;81.13;;
81666;Laerm;71083;51.796;10.952;2023-08-31T01:58:00;58.71;29.22;75.39;;
81666;Laerm;71083;51.796;10.952;2023-08-31T02:00:26;54.41;29.37;70.50;;
81666;Laerm;71083;51.796;10.952;2023-08-31T02:02:51;35.49;28.29;46.30;;
81666;Laerm;71083;51.796;10.952;2023-08-31T02:05:16;59.02;29.33;74.96;;
81666;Laerm;71083;51.796;10.952;2023-08-31T02:07:42;61.35;29.75;75.99;;
81666;Laerm;71083;51.796;10.952;2023-08-31T02:10:07;62.03;30.52;74.88;;
81666;Laerm;71083;51.796;10.952;2023-08-31T02:12:33;43.98;28.48;63.69;;
81666;Laerm;71083;51.796;10.952;2023-08-31T02:14:58;61.16;29.69;74.33;;
81666;Laerm;71083;51.796;10.952;2023-08-31T02:17:24;39.89;29.24;50.40;;
81666;Laerm;71083;51.796;10.952;2023-08-31T02:19:50;59.67;32.92;71.95;;
81666;Laerm;71083;51.796;10.952;2023-08-31T02:22:15;45.40;28.83;63.95;;
81666;Laerm;71083;51.796;10.952;2023-08-31T02:24:41;57.08;28.98;72.54;;
81666;Laerm;71083;51.796;10.952;2023-08-31T02:27:06;57.84;29.01;72.99;;
81666;Laerm;71083;51.796;10.952;2023-08-31T02:29:32;53.83;28.95;69.69;;
81666;Laerm;71083;51.796;10.952;2023-08-31T02:31:57;60.39;30.03;77.78;;
81666;Laerm;71083;51.796;10.952;2023-08-31T02:34:22;63.23;33.59;77.88;;
81666;Laerm;71083;51.796;10.952;2023-08-31T02:36:48;62.37;31.35;77.18;;
81666;Laerm;71083;51.796;10.952;2023-08-31T02:39:13;61.94;31.39;72.13;;
81666;Laerm;71083;51.796;10.952;2023-08-31T02:41:39;61.16;29.88;72.98;;
81666;Laerm;71083;51.796;10.952;2023-08-31T02:44:04;61.42;32.25;77.72;;
81666;Laerm;71083;51.796;10.952;2023-08-31T02:46:30;60.36;30.36;72.98;;
81666;Laerm;71083;51.796;10.952;2023-08-31T02:48:56;55.49;31.53;69.26;;
81666;Laerm;71083;51.796;10.952;2023-08-31T02:51:21;60.20;30.73;75.48;;
81666;Laerm;71083;51.796;10.952;2023-08-31T02:53:46;65.38;36.20;76.24;;
81666;Laerm;71083;51.796;10.952;2023-08-31T02:56:12;54.90;29.79;70.69;;
81666;Laerm;71083;51.796;10.952;2023-08-31T02:58:37;61.92;31.68;71.98;;
81666;Laerm;71083;51.796;10.952;2023-08-31T03:01:09;61.81;32.86;75.02;;
81666;Laerm;71083;51.796;10.952;2023-08-31T03:03:36;56.27;32.43;68.34;;
81666;Laerm;71083;51.796;10.952;2023-08-31T03:06:02;62.25;40.71;76.57;;
81666;Laerm;71083;51.796;10.952;2023-08-31T03:08:27;62.94;35.17;73.31;;
81666;Laerm;71083;51.796;10.952;2023-08-31T03:10:52;62.48;35.30;75.93;;
81666;Laerm;71083;51.796;10.952;2023-08-31T03:13:18;64.66;35.35;79.92;;
81666;Laerm;71083;51.796;10.952;2023-08-31T03:15:43;63.21;39.54;74.84;;
81666;Laerm;71083;51.796;10.952;2023-08-31T03:18:09;65.46;39.15;81.20;;
81666;Laerm;71083;51.796;10.952;2023-08-31T03:20:34;65.46;35.74;76.11;;
81666;Laerm;71083;51.796;10.952;2023-08-31T03:22:59;64.51;43.48;73.87;;
81666;Laerm;71083;51.796;10.952;2023-08-31T03:25:26;65.53;41.01;74.69;;
81666;Laerm;71083;51.796;10.952;2023-08-31T03:27:52;64.34;35.16;74.56;;
81666;Laerm;71083;51.796;10.952;2023-08-31T03:30:17;67.38;42.46;79.25;;
81666;Laerm;71083;51.796;10.952;2023-08-31T03:32:42;66.70;41.06;80.56;;
81666;Laerm;71083;51.796;10.952;2023-08-31T03:35:08;64.56;43.82;73.55;;
81666;Laerm;71083;51.796;10.952;2023-08-31T03:37:33;66.96;49.56;79.39;;
81666;Laerm;71083;51.796;10.952;2023-08-31T03:39:59;66.81;41.33;77.94;;
81666;Laerm;71083;51.796;10.952;2023-08-31T03:42:24;63.02;36.71;74.61;;
81666;Laerm;71083;51.796;10.952;2023-08-31T03:44:49;65.87;48.74;77.17;;
81666;Laerm;71083;51.796;10.952;2023-08-31T03:47:15;66.03;43.32;74.02;;
81666;Laerm;71083;51.796;10.952;2023-08-31T03:49:40;66.55;39.71;77.66;;
81666;Laerm;71083;51.796;10.952;2023-08-31T03:52:05;62.80;39.52;72.32;;
81666;Laerm;71083;51.796;10.952;2023-08-31T03:54:31;65.54;41.42;74.00;;
81666;Laerm;71083;51.796;10.952;2023-08-31T03:56:56;68.41;44.71;80.09;;
81666;Laerm;71083;51.796;10.952;2023-08-31T03:59:21;66.34;46.18;75.12;;
81666;Laerm;71083;51.796;10.952;2023-08-31T04:01:47;66.51;45.55;81.47;;
81666;Laerm;71083;51.796;10.952;2023-08-31T04:04:12;64.26;42.17;74.03;;
81666;Laerm;71083;51.796;10.952;2023-08-31T04:06:37;66.65;41.15;75.95;;
81666;Laerm;71083;51.796;10.952;2023-08-31T04:09:03;68.02;46.45;83.21;;
81666;Laerm;71083;51.796;10.952;2023-08-31T04:11:29;66.76;41.21;82.21;;
81666;Laerm;71083;51.796;10.952;2023-08-31T04:13:54;67.19;40.98;79.23;;
81666;Laerm;71083;51.796;10.952;2023-08-31T04:16:20;65.15;41.68;79.73;;
81666;Laerm;71083;51.796;10.952;2023-08-31T04:18:45;69.43;43.02;79.57;;
81666;Laerm;71083;51.796;10.952;2023-08-31T04:21:16;67.06;44.37;81.83;;
81666;Laerm;71083;51.796;10.952;2023-08-31T04:23:41;64.19;40.21;70.35;;
81666;Laerm;71083;51.796;10.952;2023-08-31T04:26:10;68.41;40.80;80.90;;
81666;Laerm;71083;51.796;10.952;2023-08-31T04:28:40;65.55;46.56;74.75;;
81666;Laerm;71083;51.796;10.952;2023-08-31T04:31:06;68.24;47.21;78.96;;
81666;Laerm;71083;51.796;10.952;2023-08-31T04:33:33;68.83;50.57;79.43;;
81666;Laerm;71083;51.796;10.952;2023-08-31T04:35:59;67.47;47.79;76.60;;
81666;Laerm;71083;51.796;10.952;2023-08-31T04:38:24;66.01;49.92;76.77;;
81666;Laerm;71083;51.796;10.952;2023-08-31T04:40:49;69.38;56.17;77.91;;
81666;Laerm;71083;51.796;10.952;2023-08-31T04:43:15;67.72;53.87;80.75;;
81666;Laerm;71083;51.796;10.952;2023-08-31T04:45:40;68.69;59.77;75.99;;
81666;Laerm;71083;51.796;10.952;2023-08-31T04:48:06;68.44;47.60;79.42;;
81666;Laerm;71083;51.796;10.952;2023-08-31T04:50:31;66.30;48.29;74.06;;
81666;Laerm;71083;51.796;10.952;2023-08-31T04:52:56;66.37;42.63;74.97;;
81666;Laerm;71083;51.796;10.952;2023-08-31T04:55:22;68.16;50.96;76.30;;
81666;Laerm;71083;51.796;10.952;2023-08-31T04:57:47;69.01;49.04;80.27;;
81666;Laerm;71083;51.796;10.952;2023-08-31T05:00:12;67.82;48.13;78.73;;
81666;Laerm;71083;51.796;10.952;2023-08-31T05:02:38;69.07;53.99;79.74;;
81666;Laerm;71083;51.796;10.952;2023-08-31T05:05:04;67.45;47.73;77.81;;
81666;Laerm;71083;51.796;10.952;2023-08-31T05:07:30;68.93;50.44;79.80;;
81666;Laerm;71083;51.796;10.952;2023-08-31T05:09:56;66.78;49.68;74.30;;
81666;Laerm;71083;51.796;10.952;2023-08-31T05:12:21;67.31;47.75;74.55;;
81666;Laerm;71083;51.796;10.952;2023-08-31T05:14:47;66.24;55.92;74.83;;
81666;Laerm;71083;51.796;10.952;2023-08-31T05:17:12;68.44;52.63;80.53;;
81666;Laerm;71083;51.796;10.952;2023-08-31T05:19:37;69.43;46.00;83.03;;
81666;Laerm;71083;51.796;10.952;2023-08-31T05:22:03;66.11;53.43;74.47;;
81666;Laerm;71083;51.796;10.952;2023-08-31T05:24:28;69.46;59.96;80.96;;
81666;Laerm;71083;51.796;10.952;2023-08-31T05:26:53;65.54;46.09;72.80;;
81666;Laerm;71083;51.796;10.952;2023-08-31T05:29:19;67.50;52.66;74.38;;
81666;Laerm;71083;51.796;10.952;2023-08-31T05:31:44;66.68;49.05;73.95;;
81666;Laerm;71083;51.796;10.952;2023-08-31T05:34:10;66.43;48.98;74.68;;
81666;Laerm;71083;51.796;10.952;2023-08-31T05:36:35;66.82;51.22;74.48;;
81666;Laerm;71083;51.796;10.952;2023-08-31T05:39:00;67.43;52.45;74.14;;
81666;Laerm;71083;51.796;10.952;2023-08-31T05:41:27;69.13;54.04;79.80;;
81666;Laerm;71083;51.796;10.952;2023-08-31T05:43:52;69.30;43.40;79.60;;
81666;Laerm;71083;51.796;10.952;2023-08-31T05:46:17;66.33;43.36;74.44;;
81666;Laerm;71083;51.796;10.952;2023-08-31T05:48:43;69.30;51.34;80.15;;
81666;Laerm;71083;51.796;10.952;2023-08-31T05:51:08;66.29;45.32;75.11;;
81666;Laerm;71083;51.796;10.952;2023-08-31T05:53:34;68.50;54.62;80.34;;
81666;Laerm;71083;51.796;10.952;2023-08-31T05:55:59;65.76;49.12;76.24;;
81666;Laerm;71083;51.796;10.952;2023-08-31T05:58:31;68.58;52.16;78.53;;
81666;Laerm;71083;51.796;10.952;2023-08-31T06:00:57;70.45;49.37;79.79;;
81666;Laerm;71083;51.796;10.952;2023-08-31T06:03:23;67.18;47.35;76.03;;
81666;Laerm;71083;51.796;10.952;2023-08-31T06:05:49;67.54;56.43;76.30;;
81666;Laerm;71083;51.796;10.952;2023-08-31T06:08:14;66.52;49.85;73.95;;
81666;Laerm;71083;51.796;10.952;2023-08-31T06:10:39;68.03;52.31;78.06;;
81666;Laerm;71083;51.796;10.952;2023-08-31T06:13:05;68.39;51.17;79.64;;
81666;Laerm;71083;51.796;10.952;2023-08-31T06:15:30;67.10;42.42;80.41;;
81666;Laerm;71083;51.796;10.952;2023-08-31T06:17:55;66.19;45.62;75.69;;
81666;Laerm;71083;51.796;10.952;2023-08-31T06:20:21;68.55;52.27;84.80;;
81666;Laerm;71083;51.796;10.952;2023-08-31T06:22:46;67.29;49.79;77.39;;
81666;Laerm;71083;51.796;10.952;2023-08-31T06:25:11;66.83;54.27;79.32;;
81666;Laerm;71083;51.796;10.952;2023-08-31T06:27:37;68.69;49.94;78.58;;
81666;Laerm;71083;51.796;10.952;2023-08-31T06:30:02;70.08;48.86;80.96;;
81666;Laerm;71083;51.796;10.952;2023-08-31T06:32:28;68.13;48.39;75.78;;
81666;Laerm;71083;51.796;10.952;2023-08-31T06:34:53;70.05;49.23;80.22;;
81666;Laerm;71083;51.796;10.952;2023-08-31T06:37:19;67.43;47.33;79.41;;
81666;Laerm;71083;51.796;10.952;2023-08-31T06:39:45;68.81;45.61;77.77;;
81666;Laerm;71083;51.796;10.952;2023-08-31T06:42:10;70.34;51.21;84.28;;
81666;Laerm;71083;51.796;10.952;2023-08-31T06:44:36;70.01;46.81;79.63;;
81666;Laerm;71083;51.796;10.952;2023-08-31T06:47:01;67.86;50.50;76.81;;
81666;Laerm;71083;51.796;10.952;2023-08-31T06:49:28;68.09;49.69;77.03;;
81666;Laerm;71083;51.796;10.952;2023-08-31T06:51:55;69.80;45.51;78.45;;
81666;Laerm;71083;51.796;10.952;2023-08-31T06:54:20;70.52;55.65;79.25;;
81666;Laerm;71083;51.796;10.952;2023-08-31T06:56:45;68.13;49.72;81.96;;
81666;Laerm;71083;51.796;10.952;2023-08-31T06:59:11;68.88;50.19;77.82;;
81666;Laerm;71083;51.796;10.952;2023-08-31T07:01:36;70.27;54.91;77.80;;
81666;Laerm;71083;51.796;10.952;2023-08-31T07:04:01;67.58;52.89;74.12;;
81666;Laerm;71083;51.796;10.952;2023-08-31T07:06:29;67.55;48.44;77.97;;
81666;Laerm;71083;51.796;10.952;2023-08-31T07:08:54;66.45;44.91;77.61;;
81666;Laerm;71083;51.796;10.952;2023-08-31T07:11:20;69.70;52.76;79.67;;
81666;Laerm;71083;51.796;10.952;2023-08-31T07:13:45;69.06;44.17;76.60;;
81666;Laerm;71083;51.796;10.952;2023-08-31T07:16:10;66.31;52.23;78.18;;
81666;Laerm;71083;51.796;10.952;2023-08-31T07:18:36;69.20;50.65;79.64;;
81666;Laerm;71083;51.796;10.952;2023-08-31T07:21:01;68.54;51.29;76.17;;
81666;Laerm;71083;51.796;10.952;2023-08-31T07:23:27;66.09;53.22;76.79;;
81666;Laerm;71083;51.796;10.952;2023-08-31T07:25:56;69.47;45.16;80.11;;
81666;Laerm;71083;51.796;10.952;2023-08-31T07:28:22;67.63;53.24;75.50;;
81666;Laerm;71083;51.796;10.952;2023-08-31T07:30:48;69.22;55.61;80.58;;
81666;Laerm;71083;51.796;10.952;2023-08-31T07:33:13;70.30;52.05;79.06;;
81666;Laerm;71083;51.796;10.952;2023-08-31T07:35:38;67.54;46.93;79.16;;
81666;Laerm;71083;51.796;10.952;2023-08-31T07:38:04;70.11;52.47;83.27;;
81666;Laerm;71083;51.796;10.952;2023-08-31T07:40:29;67.17;51.81;79.25;;
81666;Laerm;71083;51.796;10.952;2023-08-31T07:42:54;69.79;51.05;79.89;;
81666;Laerm;71083;51.796;10.952;2023-08-31T07:45:20;68.32;50.89;77.30;;
81666;Laerm;71083;51.796;10.952;2023-08-31T07:47:45;68.52;51.31;75.67;;
81666;Laerm;71083;51.796;10.952;2023-08-31T07:50:10;68.80;44.28;75.56;;
81666;Laerm;71083;51.796;10.952;2023-08-31T07:52:37;68.74;47.34;78.57;;
81666;Laerm;71083;51.796;10.952;2023-08-31T07:55:03;67.46;47.68;73.60;;
81666;Laerm;71083;51.796;10.952;2023-08-31T07:57:29;69.18;50.64;80.31;;
81666;Laerm;71083;51.796;10.952;2023-08-31T07:59:54;67.02;48.69;74.09;;
81666;Laerm;71083;51.796;10.952;2023-08-31T08:02:19;68.97;46.13;83.16;;
81666;Laerm;71083;51.796;10.952;2023-08-31T08:04:45;67.81;45.23;81.43;;
81666;Laerm;71083;51.796;10.952;2023-08-31T08:07:10;67.30;50.86;81.46;;
81666;Laerm;71083;51.796;10.952;2023-08-31T08:09:36;68.79;48.74;77.30;;
81666;Laerm;71083;51.796;10.952;2023-08-31T08:12:01;65.84;44.94;78.36;;
81666;Laerm;71083;51.796;10.952;2023-08-31T08:14:27;67.97;47.32;79.67;;
81666;Laerm;71083;51.796;10.952;2023-08-31T08:16:53;69.16;59.32;77.51;;
81666;Laerm;71083;51.796;10.952;2023-08-31T08:19:21;66.83;44.79;74.06;;
81666;Laerm;71083;51.796;10.952;2023-08-31T08:21:47;68.32;58.56;77.43;;
81666;Laerm;71083;51.796;10.952;2023-08-31T08:24:12;67.88;57.71;77.14;;
81666;Laerm;71083;51.796;10.952;2023-08-31T08:26:38;67.17;53.04;75.45;;
81666;Laerm;71083;51.796;10.952;2023-08-31T08:29:03;67.70;50.17;80.02;;
81666;Laerm;71083;51.796;10.952;2023-08-31T08:31:29;67.02;47.92;76.15;;
81666;Laerm;71083;51.796;10.952;2023-08-31T08:33:54;67.65;49.43;80.92;;
81666;Laerm;71083;51.796;10.952;2023-08-31T08:36:19;66.90;44.87;75.05;;
81666;Laerm;71083;51.796;10.952;2023-08-31T08:38:45;66.62;48.45;78.63;;
81666;Laerm;71083;51.796;10.952;2023-08-31T08:41:10;67.91;51.89;76.66;;
81666;Laerm;71083;51.796;10.952;2023-08-31T08:43:36;66.90;52.33;74.98;;
81666;Laerm;71083;51.796;10.952;2023-08-31T08:46:04;67.14;47.13;77.03;;
81666;Laerm;71083;51.796;10.952;2023-08-31T08:48:29;67.67;48.64;74.05;;
81666;Laerm;71083;51.796;10.952;2023-08-31T08:50:55;66.18;49.56;74.99;;
81666;Laerm;71083;51.796;10.952;2023-08-31T08:53:21;67.66;48.59;76.96;;
81666;Laerm;71083;51.796;10.952;2023-08-31T08:55:46;66.66;50.53;77.19;;
81666;Laerm;71083;51.796;10.952;2023-08-31T08:58:11;67.62;48.56;76.99;;
81666;Laerm;71083;51.796;10.952;2023-08-31T09:00:37;66.88;51.23;74.66;;
81666;Laerm;71083;51.796;10.952;2023-08-31T09:03:02;66.81;55.45;77.47;;
81666;Laerm;71083;51.796;10.952;2023-08-31T09:05:31;68.17;53.46;79.33;;
81666;Laerm;71083;51.796;10.952;2023-08-31T09:08:00;67.77;51.22;76.60;;
81666;Laerm;71083;51.796;10.952;2023-08-31T09:10:32;66.06;46.97;74.64;;
81666;Laerm;71083;51.796;10.952;2023-08-31T09:12:58;68.32;53.10;76.46;;
81666;Laerm;71083;51.796;10.952;2023-08-31T09:15:24;67.43;52.23;74.69;;
81666;Laerm;71083;51.796;10.952;2023-08-31T09:17:51;67.27;46.95;80.45;;
81666;Laerm;71083;51.796;10.952;2023-08-31T09:20:16;68.46;55.69;78.76;;
81666;Laerm;71083;51.796;10.952;2023-08-31T09:22:42;65.23;45.51;75.21;;
81666;Laerm;71083;51.796;10.952;2023-08-31T09:25:07;68.50;51.63;77.08;;
81666;Laerm;71083;51.796;10.952;2023-08-31T09:27:36;66.76;55.34;73.48;;
81666;Laerm;71083;51.796;10.952;2023-08-31T09:30:03;66.58;54.51;72.33;;
81666;Laerm;71083;51.796;10.952;2023-08-31T09:32:29;66.70;46.73;78.72;;
81666;Laerm;71083;51.796;10.952;2023-08-31T09:34:54;68.33;49.04;75.74;;
81666;Laerm;71083;51.796;10.952;2023-08-31T09:37:19;65.74;47.96;72.57;;
81666;Laerm;71083;51.796;10.952;2023-08-31T09:39:45;69.11;56.32;76.82;;
81666;Laerm;71083;51.796;10.952;2023-08-31T09:42:10;68.24;59.74;76.91;;
81666;Laerm;71083;51.796;10.952;2023-08-31T09:44:39;65.58;48.08;74.64;;
81666;Laerm;71083;51.796;10.952;2023-08-31T09:47:05;68.02;50.36;75.43;;
81666;Laerm;71083;51.796;10.952;2023-08-31T09:49:30;67.68;50.82;78.85;;
81666;Laerm;71083;51.796;10.952;2023-08-31T09:51:56;66.89;52.83;79.14;;
81666;Laerm;71083;51.796;10.952;2023-08-31T09:54:25;67.39;48.38;76.95;;
81666;Laerm;71083;51.796;10.952;2023-08-31T09:56:52;67.91;48.29;77.11;;
81666;Laerm;71083;51.796;10.952;2023-08-31T09:59:20;67.79;50.93;75.28;;
81666;Laerm;71083;51.796;10.952;2023-08-31T10:01:45;68.08;45.48;75.53;;
81666;Laerm;71083;51.796;10.952;2023-08-31T10:04:11;66.87;47.42;79.46;;
81666;Laerm;71083;51.796;10.952;2023-08-31T10:06:40;67.03;46.54;74.84;;
81666;Laerm;71083;51.796;10.952;2023-08-31T10:09:06;66.60;45.48;73.02;;
81666;Laerm;71083;51.796;10.952;2023-08-31T10:11:34;67.11;42.57;74.21;;
81666;Laerm;71083;51.796;10.952;2023-08-31T10:14:00;69.23;42.64;76.49;;
81666;Laerm;71083;51.796;10.952;2023-08-31T10:16:26;65.88;49.16;75.42;;
81666;Laerm;71083;51.796;10.952;2023-08-31T10:18:52;67.59;45.52;75.99;;
81666;Laerm;71083;51.796;10.952;2023-08-31T10:21:18;66.18;46.70;71.85;;
81666;Laerm;71083;51.796;10.952;2023-08-31T10:23:47;67.45;52.10;79.44;;
81666;Laerm;71083;51.796;10.952;2023-08-31T10:26:22;69.61;48.85;78.38;;
81666;Laerm;71083;51.796;10.952;2023-08-31T10:28:48;68.82;49.90;78.33;;
81666;Laerm;71083;51.796;10.952;2023-08-31T10:31:16;68.58;48.68;78.08;;
81666;Laerm;71083;51.796;10.952;2023-08-31T10:33:42;68.55;48.36;78.04;;
81666;Laerm;71083;51.796;10.952;2023-08-31T10:36:12;66.23;48.68;73.21;;
81666;Laerm;71083;51.796;10.952;2023-08-31T10:38:38;67.38;49.94;83.40;;
81666;Laerm;71083;51.796;10.952;2023-08-31T10:43:47;66.72;49.52;74.99;;
81666;Laerm;71083;51.796;10.952;2023-08-31T10:46:15;66.73;48.77;74.09;;
81666;Laerm;71083;51.796;10.952;2023-08-31T10:48:53;68.44;45.01;76.37;;
81666;Laerm;71083;51.796;10.952;2023-08-31T10:51:29;66.79;48.10;74.40;;
81666;Laerm;71083;51.796;10.952;2023-08-31T10:54:13;68.25;52.49;76.54;;
81666;Laerm;71083;51.796;10.952;2023-08-31T10:59:19;67.65;49.25;76.11;;
81666;Laerm;71083;51.796;10.952;2023-08-31T11:01:54;68.94;45.85;77.29;;
81666;Laerm;71083;51.796;10.952;2023-08-31T11:04:24;68.50;45.57;81.57;;
81666;Laerm;71083;51.796;10.952;2023-08-31T11:06:49;68.09;49.53;75.21;;
81666;Laerm;71083;51.796;10.952;2023-08-31T11:09:33;69.49;50.96;79.18;;
81666;Laerm;71083;51.796;10.952;2023-08-31T11:11:59;70.12;50.43;81.04;;
81666;Laerm;71083;51.796;10.952;2023-08-31T11:14:25;70.53;47.03;83.55;;
81666;Laerm;71083;51.796;10.952;2023-08-31T11:16:50;69.12;52.46;74.79;;
81666;Laerm;71083;51.796;10.952;2023-08-31T11:19:16;67.94;46.73;75.90;;
81666;Laerm;71083;51.796;10.952;2023-08-31T11:21:43;70.47;55.09;76.59;;
81666;Laerm;71083;51.796;10.952;2023-08-31T11:24:08;68.80;50.77;76.23;;
81666;Laerm;71083;51.796;10.952;2023-08-31T11:26:34;70.99;52.01;81.20;;
81666;Laerm;71083;51.796;10.952;2023-08-31T11:28:59;68.90;49.78;76.57;;
81666;Laerm;71083;51.796;10.952;2023-08-31T11:31:25;69.23;43.24;79.82;;
81666;Laerm;71083;51.796;10.952;2023-08-31T11:33:50;69.89;49.41;79.42;;
81666;Laerm;71083;51.796;10.952;2023-08-31T11:36:16;68.13;49.85;77.61;;
81666;Laerm;71083;51.796;10.952;2023-08-31T11:38:44;67.41;48.76;76.93;;
81666;Laerm;71083;51.796;10.952;2023-08-31T11:41:09;71.03;61.44;79.95;;
81666;Laerm;71083;51.796;10.952;2023-08-31T11:43:35;68.17;47.57;76.39;;
81666;Laerm;71083;51.796;10.952;2023-08-31T11:46:01;67.70;48.22;76.13;;
81666;Laerm;71083;51.796;10.952;2023-08-31T11:48:27;68.05;48.62;75.11;;
81666;Laerm;71083;51.796;10.952;2023-08-31T11:50:52;67.89;57.33;75.96;;
81666;Laerm;71083;51.796;10.952;2023-08-31T11:53:18;68.30;49.95;77.90;;
81666;Laerm;71083;51.796;10.952;2023-08-31T11:55:50;68.91;53.48;74.96;;
81666;Laerm;71083;51.796;10.952;2023-08-31T11:58:17;67.83;46.13;75.18;;
81666;Laerm;71083;51.796;10.952;2023-08-31T12:00:43;72.36;58.74;84.71;;
81666;Laerm;71083;51.796;10.952;2023-08-31T12:03:08;68.36;54.64;76.37;;
81666;Laerm;71083;51.796;10.952;2023-08-31T12:05:46;67.87;48.09;79.07;;
81666;Laerm;71083;51.796;10.952;2023-08-31T12:08:12;68.33;46.74;74.89;;
81666;Laerm;71083;51.796;10.952;2023-08-31T12:10:40;70.58;47.27;83.86;;
81666;Laerm;71083;51.796;10.952;2023-08-31T12:13:09;71.68;57.28;80.71;;
81666;Laerm;71083;51.796;10.952;2023-08-31T12:15:35;71.15;56.15;78.34;;
81666;Laerm;71083;51.796;10.952;2023-08-31T12:18:06;70.54;56.48;78.98;;
81666;Laerm;71083;51.796;10.952;2023-08-31T12:20:31;71.03;54.17;77.66;;
81666;Laerm;71083;51.796;10.952;2023-08-31T12:22:57;73.33;55.69;80.35;;
81666;Laerm;71083;51.796;10.952;2023-08-31T12:25:23;72.69;56.77;82.28;;
81666;Laerm;71083;51.796;10.952;2023-08-31T12:27:48;71.35;46.92;78.78;;
81666;Laerm;71083;51.796;10.952;2023-08-31T12:30:15;70.93;59.08;77.97;;
81666;Laerm;71083;51.796;10.952;2023-08-31T12:32:40;70.87;53.71;80.00;;
81666;Laerm;71083;51.796;10.952;2023-08-31T12:35:05;70.13;56.91;76.22;;
81666;Laerm;71083;51.796;10.952;2023-08-31T12:37:31;70.68;57.61;79.37;;
81666;Laerm;71083;51.796;10.952;2023-08-31T12:39:57;70.52;50.45;79.59;;
81666;Laerm;71083;51.796;10.952;2023-08-31T12:42:23;70.40;46.26;77.65;;
81666;Laerm;71083;51.796;10.952;2023-08-31T12:44:48;70.65;49.45;77.26;;
81666;Laerm;71083;51.796;10.952;2023-08-31T12:47:14;71.58;56.03;82.52;;
81666;Laerm;71083;51.796;10.952;2023-08-31T12:49:39;71.15;61.05;78.55;;
81666;Laerm;71083;51.796;10.952;2023-08-31T12:52:05;70.83;47.03;84.15;;
81666;Laerm;71083;51.796;10.952;2023-08-31T12:54:30;70.11;55.50;79.14;;
81666;Laerm;71083;51.796;10.952;2023-08-31T12:56:55;69.43;53.05;77.10;;
81666;Laerm;71083;51.796;10.952;2023-08-31T12:59:21;68.84;51.92;81.51;;
81666;Laerm;71083;51.796;10.952;2023-08-31T13:01:46;70.47;54.11;78.39;;
81666;Laerm;71083;51.796;10.952;2023-08-31T13:04:12;70.07;50.61;77.36;;
81666;Laerm;71083;51.796;10.952;2023-08-31T13:06:37;69.63;48.36;76.76;;
81666;Laerm;71083;51.796;10.952;2023-08-31T13:09:02;70.22;52.24;77.54;;
81666;Laerm;71083;51.796;10.952;2023-08-31T13:11:30;69.44;55.76;76.56;;
81666;Laerm;71083;51.796;10.952;2023-08-31T13:13:56;70.45;50.98;77.24;;
81666;Laerm;71083;51.796;10.952;2023-08-31T13:16:21;69.70;48.78;80.10;;
81666;Laerm;71083;51.796;10.952;2023-08-31T13:18:49;70.28;50.26;78.48;;
81666;Laerm;71083;51.796;10.952;2023-08-31T13:21:14;68.30;47.91;76.59;;
81666;Laerm;71083;51.796;10.952;2023-08-31T13:23:40;69.92;52.53;79.73;;
81666;Laerm;71083;51.796;10.952;2023-08-31T13:26:08;68.54;54.28;77.12;;
81666;Laerm;71083;51.796;10.952;2023-08-31T13:28:33;69.23;54.14;75.51;;
81666;Laerm;71083;51.796;10.952;2023-08-31T13:30:58;69.60;51.58;77.07;;
81666;Laerm;71083;51.796;10.952;2023-08-31T13:33:25;70.25;54.35;76.88;;
81666;Laerm;71083;51.796;10.952;2023-08-31T13:35:51;70.06;57.88;78.78;;